Time;durP1;ratioP1;P1;durP2;ratioP2;P2;SDS_P1;SDS_P2;PMS_P1;PMS_P2;Temp;Humidity;BMP_temperature;BMP_pressure;BME280_temperature;BME280_humidity;BME280_pressure;Samples;Min_cycle;Max_cycle;Signal;HPM_P1;HPM_P2
2023/05/30 00:00:26;;;;;;;11.38;4.82;;;10.50;99.90;;;;;;5061440;28;20048;-36
2023/05/30 00:02:51;;;;;;;14.65;4.60;;;10.60;99.90;;;;;;5066180;28;20047;-36
2023/05/30 00:05:17;;;;;;;11.32;4.18;;;10.60;99.90;;;;;;5066937;28;20477;-37
2023/05/30 00:07:43;;;;;;;15.77;4.40;;;10.70;99.90;;;;;;5061294;28;20491;-36
2023/05/30 00:10:09;;;;;;;13.60;4.30;;;10.70;99.90;;;;;;5063645;28;20044;-35
2023/05/30 00:12:35;;;;;;;10.57;4.00;;;10.80;99.90;;;;;;5061260;28;20090;-35
2023/05/30 00:15:04;;;;;;;11.02;4.15;;;10.80;99.90;;;;;;5064905;28;20028;-36
2023/05/30 00:17:32;;;;;;;10.20;3.72;;;10.80;99.90;;;;;;5064008;28;20505;-35
2023/05/30 00:19:59;;;;;;;9.20;3.78;;;10.80;99.90;;;;;;5062987;28;20040;-35
2023/05/30 00:22:25;;;;;;;10.52;4.10;;;10.80;99.90;;;;;;5058658;28;20041;-35
2023/05/30 00:24:51;;;;;;;11.20;4.25;;;10.80;99.90;;;;;;5062798;28;20174;-36
2023/05/30 00:27:17;;;;;;;10.60;3.85;;;10.90;99.90;;;;;;5067121;28;20041;-35
2023/05/30 00:29:45;;;;;;;11.85;4.45;;;10.90;99.90;;;;;;5056543;28;20033;-34
2023/05/30 00:32:11;;;;;;;10.13;3.78;;;10.90;99.90;;;;;;5062419;28;20036;-36
2023/05/30 00:34:37;;;;;;;12.05;4.65;;;10.90;99.90;;;;;;5060825;28;20036;-34
2023/05/30 00:37:05;;;;;;;15.07;4.30;;;11.00;99.90;;;;;;5056787;28;20402;-36
2023/05/30 00:39:31;;;;;;;14.45;5.00;;;11.00;99.90;;;;;;5072408;28;20116;-38
2023/05/30 00:41:57;;;;;;;18.60;4.50;;;11.10;99.90;;;;;;5060046;28;20113;-38
2023/05/30 00:44:22;;;;;;;11.20;4.63;;;11.00;99.90;;;;;;5068931;28;20040;-35
2023/05/30 00:46:50;;;;;;;13.90;4.50;;;11.00;99.90;;;;;;5069497;28;20036;-36
2023/05/30 00:49:16;;;;;;;11.52;4.82;;;11.00;99.90;;;;;;5067026;28;20064;-37
2023/05/30 00:51:42;;;;;;;10.68;4.35;;;11.00;99.90;;;;;;5069352;28;20431;-36
2023/05/30 00:54:08;;;;;;;12.50;4.78;;;11.10;99.90;;;;;;5056453;28;20112;-36
2023/05/30 00:56:34;;;;;;;9.88;4.50;;;11.10;99.90;;;;;;5058853;28;20120;-37
2023/05/30 00:59:01;;;;;;;10.80;4.70;;;11.10;99.90;;;;;;5061020;28;20059;-36
2023/05/30 01:01:27;;;;;;;11.55;4.35;;;11.10;99.90;;;;;;5058347;28;20033;-38
2023/05/30 01:03:54;;;;;;;12.13;4.75;;;11.10;99.90;;;;;;5060301;28;20044;-37
2023/05/30 01:06:20;;;;;;;9.07;3.80;;;11.20;99.90;;;;;;5060528;28;20033;-37
2023/05/30 01:08:47;;;;;;;13.20;4.15;;;11.20;99.90;;;;;;5062383;28;20387;-36
2023/05/30 01:11:15;;;;;;;12.63;4.95;;;11.20;99.90;;;;;;5064417;28;20478;-36
2023/05/30 01:13:55;;;;;;;11.07;4.20;;;11.20;99.90;;;;;;5056835;28;20112;-36
2023/05/30 01:16:25;;;;;;;8.15;4.60;;;11.30;99.90;;;;;;5058405;28;20037;-36
2023/05/30 01:18:58;;;;;;;11.88;3.83;;;11.20;99.90;;;;;;5056418;28;20044;-36
2023/05/30 01:21:26;;;;;;;11.52;4.50;;;11.30;99.90;;;;;;5064330;28;20089;-34
2023/05/30 01:24:06;;;;;;;15.70;4.85;;;11.30;99.90;;;;;;5063259;28;20036;-36
2023/05/30 01:27:06;;;;;;;11.32;4.45;;;11.30;99.90;;;;;;5060846;28;20490;-36
2023/05/30 01:29:36;;;;;;;13.25;4.55;;;11.40;99.90;;;;;;5065776;28;20124;-38
2023/05/30 01:32:04;;;;;;;14.38;5.28;;;11.30;99.90;;;;;;5061733;28;20139;-36
2023/05/30 01:34:30;;;;;;;11.15;4.63;;;11.30;99.90;;;;;;5058125;28;20072;-36
2023/05/30 01:36:56;;;;;;;9.52;4.68;;;11.40;99.90;;;;;;5062304;28;20112;-36
2023/05/30 01:39:22;;;;;;;11.23;5.13;;;11.30;99.90;;;;;;5060980;28;20127;-37
2023/05/30 01:42:14;;;;;;;14.18;5.10;;;11.40;99.90;;;;;;5067195;28;20111;-37
2023/05/30 01:45:17;;;;;;;8.45;5.07;;;11.30;99.90;;;;;;5055694;28;20044;-34
2023/05/30 01:47:47;;;;;;;9.10;4.93;;;11.40;99.90;;;;;;5013288;28;20490;-35
2023/05/30 01:50:20;;;;;;;9.50;4.68;;;11.30;99.90;;;;;;5058237;28;20148;-36
2023/05/30 01:52:58;;;;;;;13.98;5.43;;;11.30;99.90;;;;;;5055843;28;20041;-35
2023/05/30 01:55:25;;;;;;;10.13;4.88;;;11.30;99.90;;;;;;5068149;28;20028;-37
2023/05/30 01:57:52;;;;;;;14.13;4.30;;;11.30;99.90;;;;;;5061210;28;20048;-36
2023/05/30 02:00:20;;;;;;;9.13;4.63;;;11.30;99.90;;;;;;5058805;28;20041;-37
2023/05/30 02:02:46;;;;;;;12.93;5.32;;;11.30;99.90;;;;;;5060590;28;20120;-36
2023/05/30 02:05:12;;;;;;;10.15;4.22;;;11.30;99.90;;;;;;5058095;28;20123;-34
2023/05/30 02:07:38;;;;;;;8.70;4.55;;;11.20;99.90;;;;;;5061957;28;20512;-34
2023/05/30 02:10:05;;;;;;;10.57;4.35;;;11.20;99.90;;;;;;5051215;28;20033;-36
2023/05/30 02:12:31;;;;;;;9.73;4.30;;;11.20;99.90;;;;;;5056959;28;20036;-38
2023/05/30 02:14:57;;;;;;;11.27;4.60;;;11.20;99.90;;;;;;5061194;28;20055;-36
2023/05/30 02:17:24;;;;;;;11.88;4.70;;;11.20;99.90;;;;;;5059462;28;20036;-36
2023/05/30 02:19:50;;;;;;;8.80;4.63;;;11.20;99.90;;;;;;5062055;28;20048;-40
2023/05/30 02:22:17;;;;;;;10.25;4.40;;;11.20;99.90;;;;;;5066665;28;20040;-36
2023/05/30 02:24:43;;;;;;;10.02;4.10;;;11.20;99.90;;;;;;5043401;28;20033;-36
2023/05/30 02:27:09;;;;;;;11.65;4.93;;;11.20;99.90;;;;;;5063668;28;20409;-37
2023/05/30 02:29:35;;;;;;;7.93;4.40;;;11.20;99.90;;;;;;5062998;28;20040;-36
2023/05/30 02:32:01;;;;;;;10.18;4.45;;;11.20;99.90;;;;;;5063518;28;20458;-35
2023/05/30 02:34:26;;;;;;;9.30;4.07;;;11.20;99.90;;;;;;5055559;28;20043;-35
2023/05/30 02:36:52;;;;;;;11.77;4.15;;;11.10;99.90;;;;;;5050831;28;20037;-35
2023/05/30 02:39:18;;;;;;;7.80;4.50;;;11.10;99.90;;;;;;5056285;28;20037;-35
2023/05/30 02:41:44;;;;;;;8.80;4.30;;;11.30;99.90;;;;;;5056167;28;20052;-34
2023/05/30 02:44:16;;;;;;;13.75;4.75;;;11.10;99.90;;;;;;5141851;27;20454;-32
2023/05/30 02:46:42;;;;;;;10.05;4.40;;;11.10;99.90;;;;;;5107357;28;20028;-31
2023/05/30 02:49:08;;;;;;;10.95;4.55;;;11.10;99.90;;;;;;5090532;28;20131;-31
2023/05/30 02:51:35;;;;;;;11.18;4.90;;;11.10;99.90;;;;;;5107405;28;20093;-31
2023/05/30 02:54:01;;;;;;;10.07;4.13;;;11.10;99.90;;;;;;5107374;28;20119;-31
2023/05/30 02:56:27;;;;;;;9.00;4.20;;;11.10;99.90;;;;;;5107490;28;20115;-32
2023/05/30 02:58:54;;;;;;;9.55;4.47;;;11.10;99.90;;;;;;5101143;28;20051;-31
2023/05/30 03:01:20;;;;;;;11.55;4.55;;;11.20;99.90;;;;;;5103125;28;20046;-31
2023/05/30 03:03:47;;;;;;;8.80;4.18;;;11.10;99.90;;;;;;5106740;28;20032;-31
2023/05/30 03:06:13;;;;;;;9.23;4.47;;;11.10;99.90;;;;;;5107552;28;20111;-32
2023/05/30 03:08:42;;;;;;;8.85;4.82;;;11.10;99.90;;;;;;5103238;28;20106;-32
2023/05/30 03:11:08;;;;;;;11.30;5.43;;;11.10;99.90;;;;;;5089206;28;20093;-32
2023/05/30 03:13:34;;;;;;;9.32;4.50;;;11.20;99.90;;;;;;5100464;28;20123;-31
2023/05/30 03:15:59;;;;;;;9.93;4.70;;;11.10;99.90;;;;;;5089674;28;20162;-31
2023/05/30 03:18:25;;;;;;;5.78;4.13;;;11.10;99.90;;;;;;5083883;28;20523;-31
2023/05/30 03:20:51;;;;;;;13.13;4.82;;;11.10;99.90;;;;;;5105072;28;20036;-32
2023/05/30 03:23:17;;;;;;;8.82;4.53;;;11.10;99.90;;;;;;5107159;28;20032;-31
2023/05/30 03:25:43;;;;;;;8.48;4.47;;;11.10;99.90;;;;;;5106265;28;20508;-31
2023/05/30 03:28:09;;;;;;;10.02;4.75;;;11.10;99.90;;;;;;5108097;28;20032;-31
2023/05/30 03:30:35;;;;;;;8.45;4.57;;;11.10;99.90;;;;;;5104275;28;20039;-32
2023/05/30 03:33:04;;;;;;;9.27;4.57;;;11.00;99.90;;;;;;5105872;28;20400;-31
2023/05/30 03:35:30;;;;;;;8.98;4.20;;;11.10;99.90;;;;;;5106581;28;20035;-31
2023/05/30 03:37:55;;;;;;;7.85;4.00;;;11.10;99.90;;;;;;5086074;28;20062;-32
2023/05/30 03:40:21;;;;;;;8.70;4.57;;;11.10;99.90;;;;;;5107055;28;20031;-32
2023/05/30 03:42:47;;;;;;;15.30;4.32;;;11.10;99.90;;;;;;5105553;28;20127;-31
2023/05/30 03:45:13;;;;;;;10.82;5.20;;;11.10;99.90;;;;;;5106323;28;20032;-31
2023/05/30 03:47:38;;;;;;;7.25;4.05;;;11.20;99.90;;;;;;5099063;28;20044;-31
2023/05/30 03:50:04;;;;;;;9.57;4.60;;;11.10;99.90;;;;;;5102163;28;20036;-32
2023/05/30 03:52:30;;;;;;;8.38;4.90;;;11.20;99.90;;;;;;5106525;28;20039;-31
2023/05/30 03:54:56;;;;;;;13.45;4.63;;;11.30;99.90;;;;;;5096746;28;20043;-31
2023/05/30 03:57:22;;;;;;;10.07;4.93;;;11.30;99.90;;;;;;5092945;28;20581;-32
2023/05/30 03:59:47;;;;;;;10.65;4.75;;;11.30;99.90;;;;;;5092549;28;20093;-32
2023/05/30 04:02:13;;;;;;;9.82;4.30;;;11.30;99.90;;;;;;5091843;28;20493;-31
2023/05/30 04:04:39;;;;;;;11.07;4.40;;;11.30;99.90;;;;;;5090183;28;20039;-32
2023/05/30 04:07:06;;;;;;;8.73;4.50;;;11.30;99.90;;;;;;5084876;28;20036;-32
2023/05/30 04:09:31;;;;;;;8.75;4.63;;;11.40;99.90;;;;;;5089058;28;20040;-32
2023/05/30 04:11:57;;;;;;;9.07;4.75;;;11.50;99.90;;;;;;5092448;28;20485;-32
2023/05/30 04:14:23;;;;;;;10.15;4.40;;;11.40;99.90;;;;;;5089688;28;20456;-31
2023/05/30 04:16:48;;;;;;;9.68;5.32;;;11.50;99.90;;;;;;5092480;28;20539;-32
2023/05/30 04:19:15;;;;;;;7.75;4.65;;;11.50;99.90;;;;;;5090323;28;20111;-31
2023/05/30 04:21:41;;;;;;;13.20;4.80;;;11.60;99.90;;;;;;5086438;28;20033;-32
2023/05/30 04:24:07;;;;;;;11.90;4.40;;;11.60;99.90;;;;;;5084675;28;20347;-31
2023/05/30 04:26:34;;;;;;;12.15;4.80;;;11.70;99.90;;;;;;5068708;28;20040;-31
2023/05/30 04:29:00;;;;;;;10.63;4.97;;;11.70;99.90;;;;;;5090969;28;20040;-32
2023/05/30 04:31:26;;;;;;;10.85;4.55;;;11.70;99.90;;;;;;5086433;28;20054;-31
2023/05/30 04:33:53;;;;;;;8.27;4.40;;;11.80;99.90;;;;;;5090723;28;20028;-32
2023/05/30 04:36:19;;;;;;;8.80;4.45;;;11.80;99.90;;;;;;5085547;28;20116;-32
2023/05/30 04:38:46;;;;;;;9.10;4.50;;;11.80;99.90;;;;;;5091767;28;20481;-32
2023/05/30 04:41:18;;;;;;;14.20;4.85;;;11.90;99.90;;;;;;5090855;28;20028;-32
2023/05/30 04:43:48;;;;;;;13.85;5.15;;;11.90;99.90;;;;;;5085342;28;20036;-32
2023/05/30 04:46:21;;;;;;;9.38;4.15;;;11.90;99.90;;;;;;5081118;28;20036;-32
2023/05/30 04:48:52;;;;;;;10.23;5.45;;;12.00;99.90;;;;;;5086620;28;20512;-32
2023/05/30 04:51:20;;;;;;;13.40;4.60;;;12.10;99.90;;;;;;5089614;28;20032;-32
2023/05/30 04:53:46;;;;;;;10.95;4.75;;;12.10;99.90;;;;;;5091288;28;20123;-32
2023/05/30 04:56:12;;;;;;;11.77;4.72;;;12.30;99.90;;;;;;5091843;28;20036;-32
2023/05/30 04:58:37;;;;;;;12.30;5.60;;;12.20;99.90;;;;;;5091862;28;20085;-32
2023/05/30 05:01:05;;;;;;;9.48;4.40;;;12.20;99.90;;;;;;5080003;28;20040;-32
2023/05/30 05:03:32;;;;;;;13.93;5.05;;;12.30;99.90;;;;;;5086716;28;20035;-32
2023/05/30 05:05:58;;;;;;;9.77;4.13;;;12.30;99.90;;;;;;5090114;28;20123;-32
2023/05/30 05:08:26;;;;;;;10.50;4.55;;;12.30;99.90;;;;;;5087899;28;20498;-32
2023/05/30 05:10:52;;;;;;;9.35;4.32;;;12.40;99.90;;;;;;5085931;28;20071;-32
2023/05/30 05:13:17;;;;;;;8.57;4.35;;;12.40;99.90;;;;;;5089417;28;20064;-31
2023/05/30 05:15:43;;;;;;;10.90;4.28;;;12.50;99.90;;;;;;5088725;28;20040;-32
2023/05/30 05:18:10;;;;;;;9.43;4.78;;;12.50;99.90;;;;;;5089616;28;20047;-32
2023/05/30 05:20:36;;;;;;;8.00;4.70;;;12.50;99.90;;;;;;5091090;28;20036;-31
2023/05/30 05:23:02;;;;;;;9.55;4.50;;;12.60;99.90;;;;;;5086736;28;20177;-31
2023/05/30 05:25:27;;;;;;;8.27;4.38;;;12.60;99.90;;;;;;5085355;28;20119;-32
2023/05/30 05:27:54;;;;;;;9.57;4.25;;;12.60;99.90;;;;;;5088819;28;20036;-32
2023/05/30 05:30:20;;;;;;;10.07;4.72;;;12.70;99.90;;;;;;5084719;28;20036;-32
2023/05/30 05:32:46;;;;;;;10.07;4.35;;;12.80;99.90;;;;;;5088192;28;20039;-31
2023/05/30 05:35:12;;;;;;;12.73;5.00;;;12.80;99.90;;;;;;5090396;28;20173;-32
2023/05/30 05:37:38;;;;;;;9.35;4.65;;;12.80;99.90;;;;;;5083197;28;20036;-32
2023/05/30 05:40:05;;;;;;;10.95;4.47;;;12.90;99.90;;;;;;5089351;28;20036;-32
2023/05/30 05:42:34;;;;;;;8.93;4.55;;;12.90;99.90;;;;;;5088217;28;20072;-32
2023/05/30 05:45:00;;;;;;;15.90;5.00;;;12.90;99.90;;;;;;5083226;28;20040;-32
2023/05/30 05:47:26;;;;;;;7.82;4.20;;;13.00;99.90;;;;;;5087729;28;20043;-32
2023/05/30 05:49:52;;;;;;;7.82;4.78;;;13.00;99.90;;;;;;5085042;28;20039;-32
2023/05/30 05:52:19;;;;;;;9.43;3.90;;;13.10;99.90;;;;;;5086058;28;20506;-32
2023/05/30 05:54:45;;;;;;;7.97;4.13;;;13.20;99.90;;;;;;5081086;28;20039;-31
2023/05/30 05:57:11;;;;;;;9.73;4.30;;;13.20;99.90;;;;;;5088668;28;20111;-32
2023/05/30 05:59:36;;;;;;;9.43;4.18;;;13.20;99.90;;;;;;5090615;28;20089;-32
2023/05/30 06:02:02;;;;;;;9.88;4.30;;;13.30;99.90;;;;;;5088428;28;20504;-32
2023/05/30 06:04:28;;;;;;;9.85;4.45;;;13.30;99.90;;;;;;5083028;28;20081;-32
2023/05/30 06:06:54;;;;;;;9.68;4.10;;;13.40;99.90;;;;;;5089205;28;20043;-31
2023/05/30 06:09:19;;;;;;;9.20;4.90;;;13.30;99.90;;;;;;5070244;28;20509;-32
2023/05/30 06:11:45;;;;;;;10.55;4.45;;;13.40;99.90;;;;;;5087798;28;20038;-32
2023/05/30 06:14:12;;;;;;;12.90;4.22;;;13.50;99.90;;;;;;5090080;28;20119;-32
2023/05/30 06:16:38;;;;;;;9.23;4.07;;;13.60;99.90;;;;;;5082827;28;20097;-32
2023/05/30 06:19:03;;;;;;;14.05;4.38;;;13.60;99.90;;;;;;5089166;28;20035;-32
2023/05/30 06:21:30;;;;;;;10.90;4.07;;;13.70;99.90;;;;;;5085791;28;20104;-32
2023/05/30 06:23:56;;;;;;;11.05;4.90;;;13.70;99.90;;;;;;5089834;28;20036;-32
2023/05/30 06:26:22;;;;;;;8.52;4.30;;;13.60;99.90;;;;;;5089890;28;20493;-32
2023/05/30 06:28:50;;;;;;;11.23;4.50;;;13.60;99.90;;;;;;5088166;28;20032;-32
2023/05/30 06:31:15;;;;;;;11.40;4.63;;;13.70;99.90;;;;;;5082032;28;20059;-32
2023/05/30 06:33:41;;;;;;;9.70;4.10;;;13.80;99.90;;;;;;5084842;28;20473;-32
2023/05/30 06:36:07;;;;;;;8.23;3.53;;;13.80;99.90;;;;;;5075469;28;20048;-32
2023/05/30 06:38:33;;;;;;;10.30;4.70;;;13.90;99.90;;;;;;5087445;28;20043;-32
2023/05/30 06:40:58;;;;;;;7.35;4.15;;;13.90;99.90;;;;;;5087847;28;20516;-32
2023/05/30 06:43:24;;;;;;;8.02;3.97;;;13.90;99.90;;;;;;5087075;28;20047;-32
2023/05/30 06:45:50;;;;;;;9.57;4.63;;;14.10;99.90;;;;;;5083610;28;20467;-32
2023/05/30 06:48:16;;;;;;;14.05;4.35;;;14.00;99.90;;;;;;5088083;28;20071;-32
2023/05/30 06:50:41;;;;;;;9.65;4.28;;;14.10;99.90;;;;;;5086966;28;20032;-32
2023/05/30 06:53:07;;;;;;;10.98;3.92;;;14.00;99.90;;;;;;5084951;28;20051;-32
2023/05/30 06:55:33;;;;;;;10.75;3.67;;;14.00;99.90;;;;;;5089674;28;20062;-32
2023/05/30 06:57:58;;;;;;;9.95;4.00;;;13.90;99.90;;;;;;5089784;28;20054;-32
2023/05/30 07:00:24;;;;;;;7.72;3.97;;;13.90;99.90;;;;;;5089811;28;20480;-32
2023/05/30 07:02:50;;;;;;;8.45;3.70;;;14.00;99.90;;;;;;5088396;28;20096;-32
2023/05/30 07:05:16;;;;;;;7.47;3.47;;;14.10;99.90;;;;;;5072945;28;20513;-32
2023/05/30 07:07:43;;;;;;;9.15;4.43;;;13.90;99.90;;;;;;5089245;28;20121;-33
2023/05/30 07:10:09;;;;;;;7.43;4.00;;;14.00;99.90;;;;;;5081547;28;20078;-32
2023/05/30 07:12:35;;;;;;;10.20;3.45;;;14.00;99.90;;;;;;5087276;28;20036;-36
2023/05/30 07:15:02;;;;;;;8.98;3.78;;;14.00;99.90;;;;;;5089007;28;20047;-34
2023/05/30 07:17:28;;;;;;;9.63;3.83;;;14.00;99.90;;;;;;5089479;28;20071;-35
2023/05/30 07:19:54;;;;;;;14.90;4.15;;;14.00;99.90;;;;;;5090129;28;20035;-37
2023/05/30 07:22:19;;;;;;;8.70;3.70;;;14.10;99.90;;;;;;5071964;28;20071;-35
2023/05/30 07:24:45;;;;;;;8.88;4.00;;;14.00;99.90;;;;;;5086550;28;20035;-35
2023/05/30 07:27:11;;;;;;;9.50;3.85;;;14.10;99.90;;;;;;5090650;28;20035;-35
2023/05/30 07:29:37;;;;;;;11.57;4.20;;;14.10;99.90;;;;;;5090383;28;20036;-35
2023/05/30 07:32:03;;;;;;;9.18;4.22;;;14.10;99.90;;;;;;5092834;28;20362;-37
2023/05/30 07:34:28;;;;;;;9.32;4.00;;;14.00;99.90;;;;;;5085527;28;20402;-33
2023/05/30 07:36:54;;;;;;;8.68;4.32;;;14.00;99.90;;;;;;5091223;28;20036;-37
2023/05/30 07:39:20;;;;;;;10.38;4.43;;;14.00;99.90;;;;;;5082623;28;20043;-36
2023/05/30 07:41:46;;;;;;;8.23;3.90;;;14.00;99.90;;;;;;5093100;28;20040;-35
2023/05/30 07:44:11;;;;;;;7.00;3.70;;;13.90;99.90;;;;;;5086901;28;20040;-35
2023/05/30 07:46:37;;;;;;;10.50;3.90;;;14.00;99.90;;;;;;5085218;28;20033;-37
2023/05/30 07:49:03;;;;;;;7.65;3.95;;;14.00;99.90;;;;;;5092861;28;20032;-35
2023/05/30 07:51:29;;;;;;;9.10;4.55;;;13.90;99.90;;;;;;5085904;28;20119;-37
2023/05/30 07:53:55;;;;;;;10.25;4.28;;;13.90;99.90;;;;;;5075439;28;20437;-35
2023/05/30 07:56:21;;;;;;;7.38;3.63;;;13.90;99.90;;;;;;5093223;28;20401;-35
2023/05/30 07:58:46;;;;;;;6.18;3.63;;;13.70;99.90;;;;;;5092672;28;20044;-34
2023/05/30 08:01:12;;;;;;;9.07;3.28;;;13.70;99.90;;;;;;5090526;28;20493;-34
2023/05/30 08:03:38;;;;;;;8.52;4.45;;;13.70;99.90;;;;;;5092009;28;20036;-37
2023/05/30 08:06:03;;;;;;;7.00;3.55;;;13.90;99.90;;;;;;5092177;28;20035;-36
2023/05/30 08:08:29;;;;;;;6.55;3.45;;;13.70;99.90;;;;;;5088648;28;20040;-35
2023/05/30 08:10:55;;;;;;;6.30;3.38;;;13.80;99.90;;;;;;5092318;28;20465;-33
2023/05/30 08:13:26;;;;;;;8.15;3.80;;;13.70;99.90;;;;;;5091794;28;20036;-36
2023/05/30 08:15:52;;;;;;;10.43;4.18;;;13.70;99.90;;;;;;5091770;28;20117;-37
2023/05/30 08:18:18;;;;;;;6.47;3.60;;;13.80;99.90;;;;;;5090583;28;20075;-32
2023/05/30 08:20:45;;;;;;;6.70;3.47;;;13.90;99.90;;;;;;5088161;28;20047;-33
2023/05/30 08:23:11;;;;;;;7.63;3.45;;;14.00;99.90;;;;;;5084563;28;20028;-35
2023/05/30 08:25:42;;;;;;;6.15;3.03;;;13.90;99.90;;;;;;5092132;28;21473;-37
2023/05/30 08:28:10;;;;;;;6.38;3.53;;;14.00;99.90;;;;;;5086298;28;20032;-35
2023/05/30 08:30:36;;;;;;;3.92;3.00;;;13.90;99.90;;;;;;5089597;28;20044;-36
2023/05/30 08:33:02;;;;;;;4.20;3.03;;;14.10;99.90;;;;;;5089162;28;20390;-34
2023/05/30 08:35:27;;;;;;;6.45;4.03;;;14.00;99.90;;;;;;5086164;28;20043;-35
2023/05/30 08:37:53;;;;;;;6.32;3.10;;;14.00;99.90;;;;;;5088046;28;20089;-36
2023/05/30 08:40:21;;;;;;;4.18;2.40;;;14.00;99.90;;;;;;5079063;28;20502;-36
2023/05/30 08:42:47;;;;;;;5.07;3.00;;;14.10;99.90;;;;;;5085431;28;20044;-36
2023/05/30 08:45:13;;;;;;;4.72;3.20;;;14.30;99.90;;;;;;5085567;28;20382;-37
2023/05/30 08:47:40;;;;;;;5.10;2.85;;;14.30;99.90;;;;;;5091120;28;20461;-38
2023/05/30 08:50:07;;;;;;;5.85;2.67;;;14.40;99.90;;;;;;5089135;28;20063;-35
2023/05/30 08:52:33;;;;;;;6.60;3.20;;;14.30;99.90;;;;;;5082994;28;20115;-34
2023/05/30 08:55:05;;;;;;;4.30;3.05;;;14.40;99.90;;;;;;5090549;28;20126;-34
2023/05/30 08:57:40;;;;;;;4.57;2.70;;;14.60;99.90;;;;;;5090367;28;20627;-35
2023/05/30 09:00:10;;;;;;;5.03;2.90;;;14.40;99.90;;;;;;5091671;28;20039;-36
2023/05/30 09:02:36;;;;;;;5.60;2.60;;;14.50;99.90;;;;;;5090642;28;20036;-35
2023/05/30 09:05:04;;;;;;;5.70;2.80;;;14.60;99.90;;;;;;5090421;28;20047;-35
2023/05/30 09:07:31;;;;;;;8.68;3.25;;;14.50;99.90;;;;;;5089928;28;20078;-36
2023/05/30 09:09:58;;;;;;;6.43;3.72;;;14.60;99.90;;;;;;5085149;28;20078;-35
2023/05/30 09:12:26;;;;;;;7.55;3.30;;;14.50;99.90;;;;;;5088116;28;20489;-35
2023/05/30 09:14:52;;;;;;;8.45;2.97;;;14.60;99.90;;;;;;5089064;28;20500;-35
2023/05/30 09:17:18;;;;;;;4.28;2.63;;;14.50;99.90;;;;;;5091095;28;20472;-35
2023/05/30 09:19:45;;;;;;;3.25;2.33;;;14.70;99.90;;;;;;5088969;28;20063;-34
2023/05/30 09:22:11;;;;;;;6.38;2.90;;;14.70;99.90;;;;;;5090891;28;20032;-35
2023/05/30 09:25:06;;;;;;;5.25;2.80;;;14.60;99.90;;;;;;5089751;28;20043;-37
2023/05/30 09:27:35;;;;;;;4.93;2.30;;;14.50;99.90;;;;;;5077096;28;20123;-34
2023/05/30 09:30:08;;;;;;;4.05;2.30;;;14.60;99.90;;;;;;5084731;28;20028;-35
2023/05/30 09:32:36;;;;;;;3.25;2.35;;;14.70;99.90;;;;;;5084703;28;20374;-35
2023/05/30 09:35:10;;;;;;;3.78;2.10;;;14.50;99.90;;;;;;5088967;28;20508;-35
2023/05/30 09:37:43;;;;;;;3.22;1.90;;;14.60;99.90;;;;;;5083407;28;20055;-35
2023/05/30 09:40:15;;;;;;;6.55;2.63;;;14.60;99.90;;;;;;5082498;28;20309;-35
2023/05/30 09:42:44;;;;;;;4.25;2.30;;;14.70;99.90;;;;;;5087509;28;20044;-35
2023/05/30 09:45:12;;;;;;;4.05;2.10;;;14.60;99.90;;;;;;5082567;28;20058;-37
2023/05/30 09:47:44;;;;;;;7.95;2.10;;;14.80;99.90;;;;;;5090070;28;20032;-35
2023/05/30 09:50:12;;;;;;;3.17;1.92;;;15.00;99.90;;;;;;5082374;28;20047;-38
2023/05/30 09:52:40;;;;;;;2.92;1.98;;;15.30;99.90;;;;;;5084244;28;20036;-36
2023/05/30 09:55:07;;;;;;;2.85;2.10;;;15.40;99.90;;;;;;5090233;28;20124;-36
2023/05/30 09:57:37;;;;;;;2.90;2.15;;;15.30;99.90;;;;;;5086350;28;20067;-36
2023/05/30 10:00:11;;;;;;;3.83;2.85;;;15.50;99.90;;;;;;5084420;28;20043;-36
2023/05/30 10:02:41;;;;;;;2.63;1.95;;;15.40;99.90;;;;;;5089421;28;20119;-35
2023/05/30 10:05:20;;;;;;;3.92;2.35;;;15.50;99.90;;;;;;5089853;28;20044;-35
2023/05/30 10:07:49;;;;;;;4.18;1.90;;;15.60;99.90;;;;;;5082187;28;20519;-35
2023/05/30 10:10:15;;;;;;;2.53;2.00;;;15.80;99.90;;;;;;5086899;28;20028;-35
2023/05/30 10:13:02;;;;;;;6.18;2.20;;;15.70;99.90;;;;;;5085227;28;20036;-35
2023/05/30 10:15:28;;;;;;;2.83;2.33;;;15.70;99.90;;;;;;5084120;28;20122;-37
2023/05/30 10:17:59;;;;;;;3.13;2.20;;;15.70;99.90;;;;;;5071219;28;20043;-36
2023/05/30 10:20:27;;;;;;;2.35;2.15;;;15.70;99.90;;;;;;5086807;28;20040;-35
2023/05/30 10:22:53;;;;;;;3.53;2.38;;;15.70;99.90;;;;;;5066038;28;20044;-38
2023/05/30 10:25:20;;;;;;;3.67;2.35;;;15.70;99.90;;;;;;5087181;28;20036;-37
2023/05/30 10:27:52;;;;;;;4.07;2.28;;;15.70;99.90;;;;;;5084543;28;20043;-36
2023/05/30 10:30:28;;;;;;;2.47;1.80;;;15.70;99.90;;;;;;5089464;28;20063;-36
2023/05/30 10:33:08;;;;;;;3.10;2.28;;;15.70;99.90;;;;;;5084314;28;20035;-36
2023/05/30 10:35:34;;;;;;;3.40;2.13;;;15.80;99.90;;;;;;5085771;28;20409;-36
2023/05/30 10:38:01;;;;;;;4.60;1.98;;;15.60;99.90;;;;;;5086682;28;20527;-35
2023/05/30 10:40:36;;;;;;;3.40;2.50;;;15.70;99.90;;;;;;5083330;28;20036;-34
2023/05/30 10:43:14;;;;;;;2.40;2.20;;;15.80;99.90;;;;;;5089215;28;20040;-36
2023/05/30 10:46:12;;;;;;;5.00;2.35;;;15.70;99.90;;;;;;5087907;28;20329;-35
2023/05/30 10:49:06;;;;;;;2.75;2.45;;;15.80;99.90;;;;;;5081439;28;20032;-34
2023/05/30 10:52:05;;;;;;;4.75;2.50;;;15.90;99.90;;;;;;5074634;28;20040;-35
2023/05/30 10:54:32;;;;;;;2.60;2.40;;;15.70;99.90;;;;;;5077578;28;20090;-37
2023/05/30 10:57:00;;;;;;;2.65;2.45;;;15.50;99.90;;;;;;5088667;28;20036;-35
2023/05/30 10:59:26;;;;;;;3.17;2.67;;;15.50;99.90;;;;;;5089481;28;20071;-35
2023/05/30 11:02:00;;;;;;;4.32;2.47;;;15.50;99.90;;;;;;5089561;28;20076;-35
2023/05/30 11:04:34;;;;;;;3.33;2.13;;;15.60;99.90;;;;;;5090121;28;20097;-35
2023/05/30 11:07:03;;;;;;;1.95;1.85;;;15.90;99.90;;;;;;5094399;28;20064;-34
2023/05/30 11:09:29;;;;;;;2.60;2.38;;;15.90;99.90;;;;;;5089533;28;20123;-38
2023/05/30 11:11:56;;;;;;;2.63;2.42;;;16.00;99.90;;;;;;5091961;28;20458;-35
2023/05/30 11:14:30;;;;;;;4.15;2.50;;;16.10;99.90;;;;;;5091451;28;20046;-37
2023/05/30 11:17:08;;;;;;;4.50;2.67;;;16.00;99.90;;;;;;5092039;28;20032;-35
2023/05/30 11:19:38;;;;;;;3.60;2.63;;;15.80;99.90;;;;;;5090063;28;20662;-34
2023/05/30 11:22:24;;;;;;;5.10;2.45;;;15.80;99.90;;;;;;5087020;28;20043;-38
2023/05/30 11:25:18;;;;;;;6.43;2.95;;;15.90;99.90;;;;;;5092831;28;20048;-35
2023/05/30 11:28:12;;;;;;;3.30;2.78;;;15.70;99.90;;;;;;5093295;28;20036;-38
2023/05/30 11:30:44;;;;;;;2.95;2.20;;;15.80;99.90;;;;;;5092820;28;20043;-35
2023/05/30 11:33:11;;;;;;;3.15;2.10;;;15.70;99.90;;;;;;5090134;28;20057;-35
2023/05/30 11:35:38;;;;;;;2.65;2.42;;;15.70;99.90;;;;;;5091450;28;20047;-35
2023/05/30 11:38:06;;;;;;;2.80;1.95;;;15.90;99.90;;;;;;5084859;28;20507;-37
2023/05/30 11:40:31;;;;;;;4.85;2.22;;;16.10;99.90;;;;;;5086558;28;20123;-37
2023/05/30 11:42:57;;;;;;;2.85;2.58;;;16.50;99.90;;;;;;5089028;28;20123;-37
2023/05/30 11:45:30;;;;;;;2.33;2.13;;;16.70;99.90;;;;;;5092903;28;20497;-34
2023/05/30 11:48:11;;;;;;;3.63;1.90;;;17.00;99.90;;;;;;5092809;28;20085;-38
2023/05/30 11:50:44;;;;;;;2.50;2.30;;;17.10;99.90;;;;;;5085386;28;20028;-39
2023/05/30 11:53:14;;;;;;;2.10;1.90;;;17.10;99.90;;;;;;5105695;28;20076;-33
2023/05/30 11:55:47;;;;;;;3.47;1.98;;;17.00;99.90;;;;;;5090189;28;20063;-35
2023/05/30 11:58:14;;;;;;;2.63;1.88;;;17.00;99.90;;;;;;5090850;28;20051;-36
2023/05/30 12:00:41;;;;;;;1.75;1.65;;;16.90;99.90;;;;;;5089438;28;20050;-33
2023/05/30 12:03:11;;;;;;;2.10;1.90;;;16.70;99.90;;;;;;5091867;28;20028;-37
2023/05/30 12:05:38;;;;;;;2.35;1.70;;;16.70;99.90;;;;;;5093126;28;20046;-38
2023/05/30 12:08:07;;;;;;;1.40;1.30;;;16.50;99.90;;;;;;5092540;28;20150;-35
2023/05/30 12:10:33;;;;;;;3.10;1.90;;;16.60;99.90;;;;;;5092862;28;20028;-35
2023/05/30 12:13:02;;;;;;;2.70;2.10;;;16.50;99.90;;;;;;5091958;28;20238;-37
2023/05/30 12:15:27;;;;;;;2.83;1.85;;;16.40;99.90;;;;;;5085950;28;20036;-36
2023/05/30 12:17:53;;;;;;;3.67;1.58;;;16.30;99.90;;;;;;5075761;28;20493;-35
2023/05/30 12:20:20;;;;;;;3.10;2.00;;;16.40;99.90;;;;;;5070786;28;20075;-34
2023/05/30 12:22:47;;;;;;;2.17;1.80;;;16.30;99.90;;;;;;5089043;28;20466;-35
2023/05/30 12:25:13;;;;;;;5.50;2.00;;;16.40;99.90;;;;;;5075071;28;20375;-36
2023/05/30 12:27:44;;;;;;;2.67;1.60;;;16.30;99.90;;;;;;5091418;28;20127;-39
2023/05/30 12:30:16;;;;;;;3.13;1.95;;;16.30;99.90;;;;;;5090009;28;20040;-36
2023/05/30 12:32:43;;;;;;;2.05;1.63;;;16.30;99.90;;;;;;5092143;28;20040;-37
2023/05/30 12:35:10;;;;;;;2.95;1.95;;;16.50;99.90;;;;;;5092391;28;20062;-36
2023/05/30 12:37:36;;;;;;;3.08;2.00;;;16.50;99.90;;;;;;5084564;28;20044;-36
2023/05/30 12:40:05;;;;;;;2.55;2.05;;;16.60;99.90;;;;;;5084420;28;20126;-35
2023/05/30 12:42:32;;;;;;;3.65;1.90;;;16.70;99.90;;;;;;5091167;28;20044;-35
2023/05/30 12:45:01;;;;;;;2.22;1.88;;;16.70;99.90;;;;;;5086507;28;20482;-35
2023/05/30 12:47:27;;;;;;;2.13;1.90;;;16.60;99.90;;;;;;5078105;28;20521;-36